Terminal Aerodrome Forecast
Issued by NWS Portland, OR

Home | Current Version | Previous Version | Text Only | Print | Product List | Glossary On
Versions: 1 2 3 4 5 6 7 8 9 10 11 12 13 14 15 16 17 18 19 20 21 22 23 24 25 26 27 28 29 30 31 32 33
000
FTUS46 KPQR 281129
TAFTTD
TAF
KTTD 281129Z 2812/2912 30003KT 2SM -DZ OVC002
     FM281800 VRB03KT 6SM BR SCT002 BKN010 OVC050
     FM282100 09005KT P6SM SCT010 BKN050
     FM290300 09009KT P6SM SCT050 OVC080=

USA.gov is the U.S. government's official web portal to all federal, state and local government web resources and services.